createdAt,value
2022-08-22T00:02:26.335Z,66.70
2022-08-22T00:02:54.357Z,60.30
2022-08-22T00:03:10.730Z,60.60
2022-08-22T00:05:07.201Z,66.50
2022-08-22T00:07:46.247Z,68.30
2022-08-22T00:10:25.637Z,67.40
2022-08-22T00:13:02.768Z,68.10
2022-08-22T00:15:43.048Z,69.60
2022-08-22T00:18:16.975Z,69.60
2022-08-22T00:20:54.154Z,69.30
2022-08-22T00:23:28.688Z,68.30
2022-08-22T00:26:05.258Z,68.00
2022-08-22T00:28:39.700Z,68.60
2022-08-22T00:31:16.137Z,68.70
2022-08-22T00:33:49.900Z,70.00
2022-08-22T00:36:25.455Z,69.30
2022-08-22T00:38:58.812Z,69.00
2022-08-22T00:41:37.964Z,69.00
2022-08-22T00:44:32.042Z,69.00
2022-08-22T00:47:19.866Z,68.40
2022-08-22T00:50:08.812Z,68.80
2022-08-22T00:53:09.409Z,69.00
2022-08-22T00:55:54.628Z,70.10
2022-08-22T00:58:54.929Z,70.10
2022-08-22T01:01:33.656Z,70.90
2022-08-22T01:04:23.837Z,71.30
2022-08-22T01:07:04.688Z,71.10
2022-08-22T01:09:47.006Z,69.70
2022-08-22T01:12:46.297Z,70.10
2022-08-22T01:15:20.814Z,70.00
2022-08-22T01:18:01.149Z,70.00
2022-08-22T01:21:10.635Z,70.00
2022-08-22T01:24:06.822Z,71.90
2022-08-22T01:27:13.930Z,72.70
2022-08-22T01:30:19.592Z,73.20
2022-08-22T01:33:20.312Z,72.30
2022-08-22T01:36:19.706Z,73.60
2022-08-22T01:39:05.134Z,74.30
2022-08-22T01:41:57.611Z,75.50
2022-08-22T01:44:40.978Z,75.40
2022-08-22T01:47:14.343Z,73.90
2022-08-22T01:49:47.326Z,73.50
2022-08-22T01:52:21.760Z,73.80
2022-08-22T01:54:55.206Z,73.80
2022-08-22T01:57:25.014Z,73.60
2022-08-22T01:59:56.247Z,72.70
2022-08-22T02:02:53.361Z,72.40
2022-08-22T02:05:31.069Z,71.90
2022-08-22T02:08:04.930Z,71.60
2022-08-22T02:10:51.785Z,71.80
2022-08-22T02:13:34.513Z,71.80
2022-08-22T02:16:10.362Z,72.80
2022-08-22T02:18:55.309Z,73.10
2022-08-22T02:21:30.520Z,73.30
2022-08-22T02:24:04.165Z,72.30
2022-08-22T02:26:46.638Z,72.60
2022-08-22T02:29:20.334Z,74.40
2022-08-22T02:31:57.612Z,74.60
2022-08-22T02:34:37.192Z,75.10
2022-08-22T02:37:11.580Z,74.90
2022-08-22T02:39:47.430Z,74.90
2022-08-22T02:42:29.607Z,74.80
2022-08-22T02:45:16.574Z,75.70
2022-08-22T02:47:56.966Z,76.60
2022-08-22T02:50:35.685Z,77.30
2022-08-22T02:53:10.099Z,78.10
2022-08-22T02:55:55.874Z,77.90
2022-08-22T02:58:33.972Z,77.70
2022-08-22T03:01:38.251Z,77.20
2022-08-22T03:04:24.420Z,77.10
2022-08-22T03:07:13.896Z,76.70
2022-08-22T03:09:49.989Z,76.20
2022-08-22T03:12:28.635Z,76.30
2022-08-22T03:15:03.522Z,75.70
2022-08-22T03:17:36.141Z,76.60
2022-08-22T03:20:09.372Z,75.50
2022-08-22T03:22:45.683Z,76.70
2022-08-22T03:25:23.548Z,78.30
2022-08-22T03:28:00.160Z,79.00
2022-08-22T03:30:35.162Z,78.20
2022-08-22T03:33:17.135Z,77.10
2022-08-22T03:36:01.352Z,75.90
2022-08-22T03:38:41.041Z,75.90
2022-08-22T03:41:40.132Z,76.20
2022-08-22T03:44:42.670Z,75.70
2022-08-22T03:47:47.843Z,77.60
2022-08-22T03:50:39.024Z,77.80
2022-08-22T03:53:42.465Z,79.20
2022-08-22T03:56:34.960Z,80.30
2022-08-22T03:59:28.427Z,79.00
2022-08-22T04:02:42.337Z,79.60
2022-08-22T04:05:40.614Z,80.10
2022-08-22T04:08:26.562Z,78.60
2022-08-22T04:11:53.059Z,77.90
2022-08-22T04:14:56.377Z,77.60
2022-08-22T04:17:45.157Z,78.80
2022-08-22T04:20:43.429Z,79.70
2022-08-22T04:23:41.045Z,80.10
2022-08-22T04:26:13.029Z,80.60
2022-08-22T04:28:46.515Z,81.40
2022-08-22T04:31:23.508Z,83.30
2022-08-22T04:33:55.170Z,82.90
2022-08-22T04:36:28.796Z,82.80
2022-08-22T04:39:03.709Z,83.30
2022-08-22T04:41:39.553Z,85.20
2022-08-22T04:44:13.454Z,86.70
2022-08-22T04:46:47.477Z,87.00
2022-08-22T04:49:22.699Z,86.90
2022-08-22T04:51:56.961Z,86.20
2022-08-22T04:54:38.875Z,85.70
2022-08-22T04:57:22.245Z,85.10
2022-08-22T04:59:51.625Z,84.20
2022-08-22T05:02:23.962Z,82.40
2022-08-22T05:04:59.176Z,82.40
2022-08-22T05:07:36.017Z,82.30
2022-08-22T05:10:11.968Z,82.90
2022-08-22T05:12:44.574Z,82.10
2022-08-22T05:15:23.069Z,81.20
2022-08-22T05:17:53.530Z,80.10
2022-08-22T05:20:25.408Z,80.50
2022-08-22T05:23:01.238Z,81.50
2022-08-22T05:25:33.233Z,81.80
2022-08-22T05:28:12.189Z,82.40
2022-08-22T05:30:41.635Z,82.10
2022-08-22T05:33:19.443Z,81.10
2022-08-22T05:35:55.795Z,80.60
2022-08-22T05:38:31.109Z,79.50
2022-08-22T05:41:04.956Z,79.50
2022-08-22T05:43:37.784Z,78.50
2022-08-22T05:46:09.912Z,78.90
2022-08-22T05:48:43.620Z,79.70
2022-08-22T05:51:19.069Z,80.80
2022-08-22T05:53:53.189Z,81.60
2022-08-22T05:56:27.516Z,81.30
2022-08-22T05:59:01.681Z,81.40
2022-08-22T06:01:34.139Z,80.90
2022-08-22T06:04:09.302Z,80.30
2022-08-22T06:06:43.180Z,80.20
2022-08-22T06:09:20.989Z,79.00
2022-08-22T06:11:54.623Z,79.00
2022-08-22T06:14:33.825Z,79.20
2022-08-22T06:17:07.741Z,80.00
2022-08-22T06:19:40.709Z,80.50
2022-08-22T06:22:09.437Z,80.60
2022-08-22T06:24:41.821Z,79.80
2022-08-22T06:27:13.330Z,79.50
2022-08-22T06:29:44.259Z,79.80
2022-08-22T06:32:44.349Z,80.10
2022-08-22T06:35:14.593Z,79.50
2022-08-22T06:37:46.978Z,79.50
2022-08-22T06:40:18.953Z,79.20
2022-08-22T06:42:50.125Z,79.00
2022-08-22T06:45:23.140Z,79.10
2022-08-22T06:47:56.329Z,78.30
2022-08-22T06:50:33.402Z,77.60
2022-08-22T06:53:06.944Z,77.60
2022-08-22T06:55:39.970Z,77.10
2022-08-22T06:58:15.694Z,76.30
2022-08-22T07:00:51.081Z,76.60
2022-08-22T07:03:37.629Z,76.10
2022-08-22T07:06:06.601Z,75.80
2022-08-22T07:08:39.069Z,76.10
2022-08-22T07:11:15.345Z,72.90
2022-08-22T07:13:50.494Z,74.70
2022-08-22T07:16:30.285Z,74.50
2022-08-22T07:18:58.960Z,73.40
2022-08-22T07:21:29.910Z,73.40
2022-08-22T07:24:02.063Z,73.70
2022-08-22T07:26:38.249Z,73.80
2022-08-22T07:29:11.457Z,73.30
2022-08-22T07:31:45.094Z,71.40
2022-08-22T07:34:31.275Z,71.10
2022-08-22T07:37:03.567Z,70.30
2022-08-22T07:39:38.227Z,71.60
2022-08-22T07:42:13.889Z,70.80
2022-08-22T07:45:03.429Z,69.00
2022-08-22T07:47:49.233Z,69.00
2022-08-22T07:50:24.042Z,69.50
2022-08-22T07:52:54.460Z,69.00
2022-08-22T07:55:25.264Z,69.30
2022-08-22T07:57:57.822Z,69.20
2022-08-22T08:00:27.159Z,68.90
2022-08-22T08:02:58.710Z,68.60
2022-08-22T08:05:29.256Z,67.90
2022-08-22T08:07:58.260Z,67.40
2022-08-22T08:10:31.447Z,66.70
2022-08-22T08:13:06.047Z,66.80
2022-08-22T08:15:37.043Z,66.90
2022-08-22T08:18:07.575Z,67.40
2022-08-22T08:20:37.423Z,65.70
2022-08-22T08:23:10.197Z,66.20
2022-08-22T08:25:53.389Z,66.20
2022-08-22T08:28:35.135Z,67.80
2022-08-22T08:31:20.914Z,65.80
2022-08-22T08:33:51.512Z,66.70
2022-08-22T08:36:33.872Z,65.90
2022-08-22T08:39:14.152Z,65.90
2022-08-22T08:42:23.420Z,65.40
2022-08-22T08:45:20.791Z,63.40
2022-08-22T08:48:07.224Z,63.50
2022-08-22T08:50:57.724Z,63.40
2022-08-22T08:54:03.771Z,62.50
2022-08-22T08:56:39.469Z,60.30
2022-08-22T08:59:27.030Z,59.40
2022-08-22T09:02:34.979Z,59.90
2022-08-22T09:05:27.334Z,60.90
2022-08-22T09:08:37.166Z,59.40
2022-08-22T09:11:57.478Z,56.90
2022-08-22T09:14:51.997Z,57.70
2022-08-22T09:17:43.708Z,57.50
2022-08-22T09:20:27.070Z,56.20
2022-08-22T09:23:28.869Z,57.50
2022-08-22T09:26:02.284Z,55.50
2022-08-22T09:28:46.257Z,55.10
2022-08-22T09:31:47.384Z,54.70
2022-08-22T09:34:30.146Z,52.20
2022-08-22T09:37:16.285Z,53.10
2022-08-22T09:40:15.731Z,50.70
2022-08-22T09:42:55.275Z,50.40
2022-08-22T09:45:47.275Z,50.60
2022-08-22T09:48:39.759Z,49.10
2022-08-22T09:51:31.739Z,49.40
2022-08-22T09:54:15.792Z,47.30
2022-08-22T09:57:15.113Z,46.90
2022-08-22T10:00:09.545Z,46.00
2022-08-22T10:02:44.932Z,44.00
2022-08-22T10:05:41.230Z,43.10
2022-08-22T10:08:23.515Z,44.00
2022-08-22T10:11:15.915Z,44.20
2022-08-22T10:14:00.465Z,42.60
2022-08-22T10:16:53.420Z,41.40
2022-08-22T10:19:27.927Z,42.40
2022-08-22T10:22:20.377Z,42.50
2022-08-22T10:25:05.892Z,41.70
2022-08-22T10:27:45.015Z,42.50
2022-08-22T10:30:18.337Z,39.70
2022-08-22T10:32:52.605Z,40.90
2022-08-22T10:35:33.926Z,41.90
2022-08-22T10:38:07.221Z,40.30
2022-08-22T10:40:48.388Z,40.60
2022-08-22T10:43:29.169Z,41.30
2022-08-22T10:46:06.740Z,40.00
2022-08-22T10:48:43.842Z,39.70
2022-08-22T10:51:21.052Z,40.60
2022-08-22T10:54:01.374Z,39.50
2022-08-22T10:56:43.812Z,39.10
2022-08-22T10:59:29.494Z,40.70
2022-08-22T11:02:14.809Z,41.00
2022-08-22T11:05:15.263Z,40.70
2022-08-22T11:07:48.721Z,40.70
2022-08-22T11:10:27.957Z,40.10
2022-08-22T11:13:12.135Z,41.10
2022-08-22T11:15:59.787Z,40.70
2022-08-22T11:18:39.692Z,40.70
2022-08-22T11:21:15.235Z,40.70
2022-08-22T11:23:51.809Z,39.00
2022-08-22T11:26:41.680Z,39.40
2022-08-22T11:29:43.445Z,39.40
2022-08-22T11:32:17.769Z,38.20
2022-08-22T11:35:00.165Z,39.00
2022-08-22T11:37:49.194Z,39.50
2022-08-22T11:40:37.263Z,37.80
2022-08-22T11:43:18.408Z,38.10
2022-08-22T11:45:50.776Z,37.80
2022-08-22T11:48:24.971Z,38.40
2022-08-22T11:51:03.500Z,37.20
2022-08-22T11:53:46.009Z,36.70
2022-08-22T11:56:22.742Z,37.90
2022-08-22T11:58:57.621Z,37.00
2022-08-22T12:01:36.804Z,37.60
2022-08-22T12:04:13.094Z,37.00
2022-08-22T12:06:59.997Z,36.30
2022-08-22T12:09:51.985Z,37.70
2022-08-22T12:12:42.177Z,37.70
2022-08-22T12:15:18.172Z,36.50
2022-08-22T12:18:08.697Z,36.90
2022-08-22T12:20:58.125Z,36.30
2022-08-22T12:24:19.195Z,37.70
2022-08-22T12:27:18.403Z,35.70
2022-08-22T12:30:23.389Z,35.40
2022-08-22T12:33:27.129Z,37.00
2022-08-22T12:36:18.795Z,36.20
2022-08-22T12:39:11.325Z,35.80
2022-08-22T12:42:06.881Z,36.20
2022-08-22T12:44:49.712Z,36.70
2022-08-22T12:47:34.406Z,36.40
2022-08-22T12:50:20.494Z,34.20
2022-08-22T12:53:07.056Z,35.00
2022-08-22T12:55:52.441Z,36.10
2022-08-22T12:58:33.744Z,35.00
2022-08-22T13:01:07.512Z,35.60
2022-08-22T13:03:41.697Z,33.90
2022-08-22T13:06:55.071Z,35.40
2022-08-22T13:09:30.746Z,35.20
2022-08-22T13:12:04.730Z,35.20
2022-08-22T13:14:35.161Z,34.80
2022-08-22T13:17:25.397Z,33.80
2022-08-22T13:20:04.510Z,33.80
2022-08-22T13:22:35.129Z,34.10
2022-08-22T13:25:08.587Z,34.50
2022-08-22T13:27:51.351Z,34.50
2022-08-22T13:30:22.365Z,35.00
2022-08-22T13:32:52.678Z,34.80
2022-08-22T13:35:25.612Z,34.20
2022-08-22T13:37:56.870Z,33.50
2022-08-22T13:40:30.658Z,35.00
2022-08-22T13:43:06.484Z,33.80
2022-08-22T13:45:37.178Z,33.90
2022-08-22T13:48:11.607Z,33.70
2022-08-22T13:50:56.984Z,33.20
2022-08-22T13:53:33.710Z,32.20
2022-08-22T13:56:15.603Z,31.30
2022-08-22T13:58:47.344Z,31.90
2022-08-22T14:01:38.834Z,32.10
2022-08-22T14:04:26.678Z,31.30
2022-08-22T14:07:24.201Z,31.20
2022-08-22T14:09:57.487Z,31.60
2022-08-22T14:12:50.120Z,32.00
2022-08-22T14:15:24.630Z,32.60
2022-08-22T14:17:59.781Z,32.20
2022-08-22T14:20:33.731Z,31.80
2022-08-22T14:23:07.509Z,31.30
2022-08-22T14:25:38.012Z,31.00
2022-08-22T14:28:14.188Z,30.90
2022-08-22T14:30:59.437Z,29.00
2022-08-22T14:33:35.044Z,29.70
2022-08-22T14:36:12.528Z,29.10
2022-08-22T14:38:46.502Z,29.60
2022-08-22T14:41:25.813Z,29.00
2022-08-22T14:44:01.448Z,28.90
2022-08-22T14:46:35.142Z,28.40
2022-08-22T14:49:29.475Z,26.30
2022-08-22T14:52:03.461Z,26.70
2022-08-22T14:54:32.823Z,26.50
2022-08-22T14:57:04.772Z,26.70
2022-08-22T14:59:50.250Z,26.50
2022-08-22T15:02:26.255Z,25.50
2022-08-22T15:04:56.253Z,25.00
2022-08-22T15:07:27.200Z,25.50
2022-08-22T15:10:01.127Z,25.70
2022-08-22T15:12:34.150Z,25.30
2022-08-22T15:15:07.475Z,25.30
2022-08-22T15:17:43.993Z,25.40
2022-08-22T15:20:28.488Z,25.20
2022-08-22T15:23:01.787Z,25.40
2022-08-22T15:25:34.418Z,25.80
2022-08-22T15:28:13.046Z,26.40
2022-08-22T15:30:48.219Z,26.70
2022-08-22T15:33:25.395Z,26.20
2022-08-22T15:35:56.624Z,27.00
2022-08-22T15:38:28.786Z,27.10
2022-08-22T15:40:57.894Z,27.90
2022-08-22T15:43:33.760Z,28.80
2022-08-22T15:46:24.882Z,29.40
2022-08-22T15:49:01.144Z,29.60
2022-08-22T15:51:38.534Z,30.60
2022-08-22T15:54:16.288Z,31.20
2022-08-22T15:57:16.594Z,31.70
2022-08-22T15:59:55.555Z,31.70
2022-08-22T16:02:35.257Z,32.70
2022-08-22T16:05:23.895Z,32.30
2022-08-22T16:08:03.778Z,32.30
2022-08-22T16:10:35.995Z,32.20
2022-08-22T16:13:37.984Z,32.20
2022-08-22T16:16:09.535Z,32.60
2022-08-22T16:19:21.509Z,33.10
2022-08-22T16:22:16.518Z,33.10
2022-08-22T16:25:11.374Z,33.70
2022-08-22T16:27:57.366Z,33.50
2022-08-22T16:30:38.849Z,32.60
2022-08-22T16:33:08.833Z,33.00
2022-08-22T16:36:22.373Z,32.80
2022-08-22T16:38:54.030Z,32.40
2022-08-22T16:41:29.972Z,32.00
2022-08-22T16:44:43.909Z,32.20
2022-08-22T16:47:15.914Z,32.20
2022-08-22T16:50:09.613Z,32.30
2022-08-22T16:52:57.642Z,32.60
2022-08-22T16:56:09.586Z,33.00
2022-08-22T16:59:27.565Z,33.60
2022-08-22T17:02:33.336Z,33.60
2022-08-22T17:05:18.614Z,34.00
2022-08-22T17:08:01.477Z,34.10
2022-08-22T17:10:43.285Z,35.00
2022-08-22T17:13:26.539Z,35.50
2022-08-22T17:16:07.701Z,36.40
2022-08-22T17:18:48.501Z,37.20
2022-08-22T17:21:25.855Z,38.00
2022-08-22T17:24:08.185Z,39.00
2022-08-22T17:26:55.789Z,39.50
2022-08-22T17:29:32.931Z,39.90
2022-08-22T17:32:08.818Z,40.60
2022-08-22T17:34:40.447Z,40.40
2022-08-22T17:37:12.410Z,39.10
2022-08-22T17:40:10.901Z,40.40
2022-08-22T17:42:52.587Z,39.40
2022-08-22T17:45:31.401Z,39.90
2022-08-22T17:48:07.882Z,40.10
2022-08-22T17:50:41.541Z,40.20
2022-08-22T17:53:16.253Z,41.80
2022-08-22T17:55:59.160Z,39.50
2022-08-22T17:58:43.442Z,40.30
2022-08-22T18:01:20.569Z,41.30
2022-08-22T18:04:00.572Z,41.30
2022-08-22T18:06:34.232Z,39.90
2022-08-22T18:09:14.136Z,39.60
2022-08-22T18:11:47.312Z,39.50
2022-08-22T18:14:26.839Z,40.00
2022-08-22T18:16:59.210Z,40.90
2022-08-22T18:19:40.696Z,41.20
2022-08-22T18:22:13.142Z,40.90
2022-08-22T18:24:49.495Z,41.10
2022-08-22T18:27:34.077Z,40.60
2022-08-22T18:30:15.142Z,41.20
2022-08-22T18:32:56.525Z,41.60
2022-08-22T18:35:32.497Z,41.70
2022-08-22T18:38:19.182Z,41.70
2022-08-22T18:40:53.525Z,41.60
2022-08-22T18:43:30.207Z,42.30
2022-08-22T18:46:04.174Z,42.30
2022-08-22T18:48:59.413Z,42.30
2022-08-22T18:51:34.993Z,42.30
2022-08-22T18:54:35.325Z,42.50
2022-08-22T18:57:11.197Z,43.60
2022-08-22T19:00:02.314Z,43.80
2022-08-22T19:03:09.364Z,43.80
2022-08-22T19:06:02.580Z,44.60
2022-08-22T19:09:03.116Z,46.80
2022-08-22T19:11:46.443Z,45.90
2022-08-22T19:14:48.589Z,46.50
2022-08-22T19:17:58.822Z,45.90
2022-08-22T19:20:48.904Z,47.80
2022-08-22T19:23:48.616Z,47.20
2022-08-22T19:26:39.195Z,46.90
2022-08-22T19:29:32.319Z,47.10
2022-08-22T19:32:02.059Z,48.40
2022-08-22T19:34:36.430Z,48.20
2022-08-22T19:37:32.101Z,50.40
2022-08-22T19:40:05.620Z,48.90
2022-08-22T19:42:39.825Z,49.10
2022-08-22T19:45:19.651Z,49.30
2022-08-22T19:48:00.332Z,49.90
2022-08-22T19:50:36.034Z,50.30
2022-08-22T19:53:25.357Z,50.30
2022-08-22T19:56:11.365Z,50.50
2022-08-22T19:58:52.342Z,50.80
2022-08-22T20:01:47.011Z,51.40
2022-08-22T20:04:43.572Z,51.70
2022-08-22T20:07:22.778Z,52.20
2022-08-22T20:10:05.321Z,51.60
2022-08-22T20:12:46.931Z,52.30
2022-08-22T20:15:20.852Z,51.50
2022-08-22T20:20:54.908Z,53.30
2022-08-22T20:23:28.346Z,53.20
2022-08-22T20:25:57.493Z,54.60
2022-08-22T20:28:39.124Z,54.70
2022-08-22T20:31:12.785Z,52.90
2022-08-22T20:33:43.855Z,52.30
2022-08-22T20:36:28.544Z,52.80
2022-08-22T20:39:01.561Z,52.80
2022-08-22T20:41:35.591Z,53.30
2022-08-22T20:44:12.550Z,53.80
2022-08-22T20:46:53.164Z,54.40
2022-08-22T20:49:26.554Z,54.30
2022-08-22T20:51:57.579Z,55.10
2022-08-22T20:54:28.236Z,55.50
2022-08-22T20:56:58.373Z,56.30
2022-08-22T20:59:32.404Z,56.50
2022-08-22T21:02:09.413Z,57.00
2022-08-22T21:04:44.117Z,55.50
2022-08-22T21:07:12.315Z,56.90
2022-08-22T21:09:57.771Z,57.80
2022-08-22T21:12:26.451Z,57.20
2022-08-22T21:14:55.976Z,58.10
2022-08-22T21:17:29.147Z,59.30
2022-08-22T21:20:21.153Z,59.40
2022-08-22T21:22:49.680Z,58.00
2022-08-22T21:25:17.912Z,57.40
2022-08-22T21:27:49.172Z,58.30
2022-08-22T21:30:25.856Z,57.90
2022-08-22T21:32:56.227Z,58.10
2022-08-22T21:35:29.590Z,59.10
2022-08-22T21:37:59.095Z,59.20
2022-08-22T21:40:33.702Z,59.70
2022-08-22T21:43:08.228Z,60.00
2022-08-22T21:45:44.358Z,59.10
2022-08-22T21:48:32.371Z,58.30
2022-08-22T21:51:21.910Z,60.30
2022-08-22T21:53:56.095Z,60.90
2022-08-22T21:56:38.589Z,59.60
2022-08-22T21:59:25.491Z,58.80
2022-08-22T22:01:55.692Z,60.90
2022-08-22T22:04:23.956Z,61.10
2022-08-22T22:06:52.002Z,61.50
2022-08-22T22:09:20.133Z,62.00
2022-08-22T22:11:48.317Z,60.60
2022-08-22T22:14:16.389Z,62.50
2022-08-22T22:16:46.477Z,62.50
2022-08-22T22:19:15.961Z,62.10
2022-08-22T22:21:44.418Z,61.30
2022-08-22T22:24:12.470Z,61.60
2022-08-22T22:26:40.557Z,63.10
2022-08-22T22:29:10.762Z,63.90
2022-08-22T22:31:38.937Z,62.30
2022-08-22T22:34:06.966Z,60.80
2022-08-22T22:36:36.717Z,63.80
2022-08-22T22:39:06.188Z,63.20
2022-08-22T22:41:34.253Z,62.50
2022-08-22T22:44:02.991Z,62.70
2022-08-22T22:46:31.384Z,63.40
2022-08-22T22:48:59.896Z,61.30
2022-08-22T22:51:27.962Z,61.80
2022-08-22T22:53:58.454Z,63.30
2022-08-22T22:56:26.720Z,63.70
2022-08-22T22:58:59.191Z,64.20
2022-08-22T23:01:59.992Z,63.90
2022-08-22T23:04:28.215Z,65.00
2022-08-22T23:06:56.309Z,64.70
2022-08-22T23:09:38.635Z,63.10
2022-08-22T23:12:12.943Z,63.20
2022-08-22T23:14:41.144Z,63.40
2022-08-22T23:17:09.577Z,63.20
2022-08-22T23:19:38.877Z,65.20
2022-08-22T23:22:08.755Z,62.70
2022-08-22T23:24:39.814Z,65.20
2022-08-22T23:27:08.902Z,67.00
2022-08-22T23:29:38.373Z,67.00
2022-08-22T23:32:06.671Z,66.10
2022-08-22T23:34:36.688Z,65.70
2022-08-22T23:37:07.817Z,65.40
2022-08-22T23:39:39.285Z,63.80
2022-08-22T23:42:09.854Z,63.40
2022-08-22T23:44:40.916Z,66.70
2022-08-22T23:47:13.306Z,66.90
2022-08-22T23:49:42.136Z,66.30
2022-08-22T23:52:12.136Z,66.20
2022-08-22T23:54:42.116Z,66.90
2022-08-22T23:57:12.160Z,66.10
2022-08-22T23:59:46.333Z,66.40
